Terminal Aerodrome Forecast
Issued by NWS

Home | Current Version | Previous Version | Text Only | Print | Product List | Glossary On
Versions: 1 2 3 4 5 6 7 8 9 10 11 12 13 14 15 16 17 18 19 20 21
000
FTUS44 KLIX 260920 AAB
TAFMSY
TAF AMD
KMSY 260920Z 2609/2706 32020G30KT 2SM TSRA OVC015CB
     FM261000 35010KT 5SM -RA SCT015 BKN040 OVC070
     FM261800 15012KT P6SM VCTS BKN040CB=

USA.gov is the U.S. government's official web portal to all federal, state and local government web resources and services.